Time;durP1;ratioP1;P1;durP2;ratioP2;P2;SDS_P1;SDS_P2;PMS_P1;PMS_P2;Temp;Humidity;BMP_temperature;BMP_pressure;BME280_temperature;BME280_humidity;BME280_pressure;Samples;Min_cycle;Max_cycle;Signal;HPM_P1;HPM_P2
2023/11/26 00:02:21;;;;;;;;;;;;;;;17.10;46.72;97105.06;4964292;28;1228;-54
2023/11/26 00:04:46;;;;;;;;;;;;;;;16.71;47.26;97113.63;4967724;28;2456;-55
2023/11/26 00:07:12;;;;;;;;;;;;;;;17.53;45.92;97116.25;4968946;28;1101;-56
2023/11/26 00:09:37;;;;;;;;;;;;;;;17.33;45.85;97096.63;4967738;28;1049;-55
2023/11/26 00:12:07;;;;;;;;;;;;;;;16.83;46.93;97079.28;4979250;28;1148;-55
2023/11/26 00:14:33;;;;;;;;;;;;;;;16.86;47.43;97083.41;4976890;28;1045;-52
2023/11/26 00:16:59;;;;;;;;;;;;;;;17.46;45.57;97085.19;4954104;28;971;-57
2023/11/26 00:19:27;;;;;;;;;;;;;;;16.85;46.83;97079.13;4979671;28;1060;-57
2023/11/26 00:21:52;;;;;;;;;;;;;;;17.22;46.36;97090.13;4947981;28;1022;-58
2023/11/26 00:24:17;;;;;;;;;;;;;;;17.43;45.74;97080.31;4947593;28;1911;-56
2023/11/26 00:26:43;;;;;;;;;;;;;;;16.85;47.13;97076.47;4963732;28;972;-56
2023/11/26 00:29:10;;;;;;;;;;;;;;;17.53;45.71;97039.19;4979309;28;1025;-56
2023/11/26 00:31:37;;;;;;;;;;;;;;;17.20;46.02;97076.22;4947738;29;970;-56
2023/11/26 00:34:02;;;;;;;;;;;;;;;16.72;47.15;97061.34;4958903;28;1133;-57
2023/11/26 00:36:28;;;;;;;;;;;;;;;17.76;45.39;97057.28;4959252;28;2721;-57
2023/11/26 00:38:53;;;;;;;;;;;;;;;17.09;46.35;97045.00;4964572;28;1247;-54
2023/11/26 00:41:20;;;;;;;;;;;;;;;16.74;47.13;97038.06;4947120;28;994;-57
2023/11/26 00:43:45;;;;;;;;;;;;;;;17.72;45.03;97040.13;4958882;28;1142;-54
2023/11/26 00:46:11;;;;;;;;;;;;;;;17.06;46.38;97051.53;4973124;28;1918;-56
2023/11/26 00:48:37;;;;;;;;;;;;;;;16.70;47.21;97048.28;4960089;28;1104;-59
2023/11/26 00:51:04;;;;;;;;;;;;;;;17.00;46.82;97053.16;4964836;28;1155;-57
2023/11/26 00:53:30;;;;;;;;;;;;;;;17.31;45.68;97058.03;4977678;28;1069;-54
2023/11/26 00:55:55;;;;;;;;;;;;;;;16.82;47.02;97043.16;4977586;28;1391;-53
2023/11/26 00:58:21;;;;;;;;;;;;;;;17.58;45.40;97036.72;4973173;28;1023;-52
2023/11/26 01:00:47;;;;;;;;;;;;;;;17.23;45.75;97035.97;4965102;28;1176;-57
2023/11/26 01:03:13;;;;;;;;;;;;;;;16.79;46.75;97046.22;4971955;28;1053;-55
2023/11/26 01:05:38;;;;;;;;;;;;;;;17.60;44.98;97037.31;4964993;28;2033;-52
2023/11/26 01:08:04;;;;;;;;;;;;;;;17.01;46.06;97038.06;4959527;28;1021;-56
2023/11/26 01:10:30;;;;;;;;;;;;;;;17.12;46.30;97020.69;4959415;28;1093;-54
2023/11/26 01:12:55;;;;;;;;;;;;;;;17.52;44.87;96997.69;4970365;28;1524;-56
2023/11/26 01:15:21;;;;;;;;;;;;;;;16.97;46.30;97021.72;4972341;28;1076;-55
2023/11/26 01:17:47;;;;;;;;;;;;;;;16.85;46.67;97002.94;4971851;28;1136;-50
2023/11/26 01:20:12;;;;;;;;;;;;;;;17.60;44.70;97011.53;4965901;28;1161;-49
2023/11/26 01:22:38;;;;;;;;;;;;;;;16.95;46.17;96985.78;4978249;28;1060;-49
2023/11/26 01:25:05;;;;;;;;;;;;;;;17.40;45.53;96998.31;4973010;28;1973;-54
2023/11/26 01:27:31;;;;;;;;;;;;;;;17.30;45.33;97016.56;4965603;28;1029;-55
2023/11/26 01:29:56;;;;;;;;;;;;;;;16.79;46.39;96997.63;4978024;28;1053;-53
2023/11/26 01:32:22;;;;;;;;;;;;;;;16.55;46.90;96974.19;4977479;28;1093;-56
2023/11/26 01:34:47;;;;;;;;;;;;;;;17.34;45.48;96957.50;4960127;28;2523;-52
2023/11/26 01:37:13;;;;;;;;;;;;;;;17.22;45.54;96986.53;4970631;28;1164;-56
2023/11/26 01:39:38;;;;;;;;;;;;;;;16.75;46.59;96962.72;4970512;28;1451;-53
2023/11/26 01:42:05;;;;;;;;;;;;;;;17.31;45.47;96973.84;4969455;28;1014;-53
2023/11/26 01:44:33;;;;;;;;;;;;;;;17.33;45.03;96925.84;4972854;28;1980;-55
2023/11/26 01:47:02;;;;;;;;;;;;;;;16.84;46.12;96955.38;4959166;28;1033;-53
2023/11/26 01:49:27;;;;;;;;;;;;;;;17.53;44.89;96949.66;4958879;28;1037;-52
2023/11/26 01:51:53;;;;;;;;;;;;;;;17.30;45.20;96982.03;4951000;29;882;-51
2023/11/26 01:54:18;;;;;;;;;;;;;;;16.80;46.04;96975.41;4960082;28;1188;-57
2023/11/26 01:56:44;;;;;;;;;;;;;;;17.47;45.08;97008.94;4964575;28;1196;-55
2023/11/26 01:59:09;;;;;;;;;;;;;;;17.25;44.90;97036.59;4957524;29;1251;-53
2023/11/26 02:01:35;;;;;;;;;;;;;;;16.77;46.19;97035.00;4970065;28;1256;-54
2023/11/26 02:04:00;;;;;;;;;;;;;;;17.34;45.33;97054.97;4960313;28;2024;-50
2023/11/26 02:06:26;;;;;;;;;;;;;;;17.46;44.53;97025.91;4971382;28;2626;-53
2023/11/26 02:08:51;;;;;;;;;;;;;;;16.89;46.12;97059.09;4971196;28;1064;-54
2023/11/26 02:11:17;;;;;;;;;;;;;;;17.07;45.79;97068.25;4970110;28;1141;-53
2023/11/26 02:13:44;;;;;;;;;;;;;;;17.45;44.60;97080.09;4963496;28;1228;-55
2023/11/26 02:16:09;;;;;;;;;;;;;;;16.96;45.64;97075.00;4967131;28;1290;-51
2023/11/26 02:18:35;;;;;;;;;;;;;;;17.29;45.26;97002.47;4963436;28;1371;-55
2023/11/26 02:21:00;;;;;;;;;;;;;;;17.24;44.79;96923.41;4965211;28;1164;-57
2023/11/26 02:23:26;;;;;;;;;;;;;;;16.68;46.23;96816.81;4963454;28;1227;-58
2023/11/26 02:25:51;;;;;;;;;;;;;;;16.97;45.81;96742.94;4975566;28;1898;-57
2023/11/26 02:28:17;;;;;;;;;;;;;;;17.55;43.92;96604.78;4968194;28;885;-57
2023/11/26 02:30:42;;;;;;;;;;;;;;;16.87;45.60;96597.44;4958154;29;993;-55
2023/11/26 02:33:08;;;;;;;;;;;;;;;16.70;46.05;96668.78;4963912;28;1299;-56
2023/11/26 02:35:33;;;;;;;;;;;;;;;17.83;43.64;96709.00;4964723;28;1808;-56
2023/11/26 02:37:59;;;;;;;;;;;;;;;17.17;44.89;96775.72;4977091;28;1007;-59
2023/11/26 02:40:24;;;;;;;;;;;;;;;16.67;45.99;96772.69;4966571;28;1132;-54
2023/11/26 02:42:50;;;;;;;;;;;;;;;17.77;43.75;96726.63;4976690;28;1193;-56
2023/11/26 02:45:15;;;;;;;;;;;;;;;17.13;45.05;96760.22;4977257;28;1914;-55
2023/11/26 02:47:43;;;;;;;;;;;;;;;17.12;45.11;96814.38;4959082;28;1227;-57
2023/11/26 02:50:08;;;;;;;;;;;;;;;17.52;43.84;96769.97;4967128;28;1033;-55
2023/11/26 02:52:34;;;;;;;;;;;;;;;16.94;45.20;96766.44;4968709;28;1121;-54
2023/11/26 02:55:00;;;;;;;;;;;;;;;16.77;45.70;96836.78;4965592;28;1069;-58
2023/11/26 02:57:25;;;;;;;;;;;;;;;17.87;43.14;96764.16;4969047;28;1081;-57
2023/11/26 02:59:52;;;;;;;;;;;;;;;17.11;44.99;96841.97;4956114;29;1273;-56
2023/11/26 03:02:18;;;;;;;;;;;;;;;16.74;45.73;96854.94;4961327;28;1240;-56
2023/11/26 03:04:52;;;;;;;;;;;;;;;17.71;43.55;96847.94;4969129;28;2313;-58
2023/11/26 03:07:20;;;;;;;;;;;;;;;17.05;44.79;96863.22;4976473;28;1139;-56
2023/11/26 03:15:16;;;;;;;;;;;;;;;16.94;45.04;97031.91;4958070;28;1164;-52
2023/11/26 03:17:41;;;;;;;;;;;;;;;16.63;45.93;97032.34;4974338;28;875;-56
2023/11/26 03:20:08;;;;;;;;;;;;;;;17.76;43.45;97036.03;4971653;28;1073;-54
2023/11/26 03:22:36;;;;;;;;;;;;;;;17.00;44.80;96964.72;4969813;28;1114;-56
2023/11/26 03:25:02;;;;;;;;;;;;;;;16.96;45.19;96985.56;4970620;28;1985;-59
2023/11/26 03:27:28;;;;;;;;;;;;;;;17.73;43.26;97002.69;4952627;28;1136;-54
2023/11/26 03:29:53;;;;;;;;;;;;;;;17.01;44.63;97035.41;4963638;28;1049;-53
2023/11/26 03:32:19;;;;;;;;;;;;;;;16.67;45.46;97079.69;4965195;28;1101;-55
2023/11/26 03:34:45;;;;;;;;;;;;;;;17.17;44.56;97131.59;4957826;28;2291;-57
2023/11/26 03:37:11;;;;;;;;;;;;;;;17.53;43.50;97122.38;4957806;28;1093;-54
2023/11/26 03:39:40;;;;;;;;;;;;;;;16.92;44.90;97116.25;4969900;28;1220;-59
2023/11/26 03:42:06;;;;;;;;;;;;;;;16.79;45.57;97107.28;4976174;28;870;-57
2023/11/26 03:44:31;;;;;;;;;;;;;;;17.56;43.49;97087.41;4970374;28;1969;-56
2023/11/26 03:46:57;;;;;;;;;;;;;;;16.90;44.81;97068.69;4957570;28;1037;-55
2023/11/26 03:49:22;;;;;;;;;;;;;;;17.00;44.86;97070.91;4970309;28;1243;-54
2023/11/26 03:51:49;;;;;;;;;;;;;;;17.33;43.83;97088.66;4969369;28;994;-55
2023/11/26 03:54:15;;;;;;;;;;;;;;;16.86;44.85;97089.53;4969514;28;940;-57
2023/11/26 03:56:40;;;;;;;;;;;;;;;17.75;43.27;97169.94;4969949;28;1116;-53
2023/11/26 03:59:06;;;;;;;;;;;;;;;17.20;44.27;97193.09;4957476;28;1180;-57
2023/11/26 04:01:31;;;;;;;;;;;;;;;16.71;45.16;97193.25;4972781;28;1148;-55
2023/11/26 04:03:58;;;;;;;;;;;;;;;17.25;44.37;97227.00;4978448;28;1903;-57
2023/11/26 04:06:24;;;;;;;;;;;;;;;17.19;44.19;97217.22;4960476;28;2560;-54
2023/11/26 04:08:49;;;;;;;;;;;;;;;16.75;45.21;97244.06;4978886;28;1191;-54
2023/11/26 04:11:15;;;;;;;;;;;;;;;17.69;43.20;97213.31;4979874;28;1049;-57
2023/11/26 04:13:40;;;;;;;;;;;;;;;17.08;44.25;97239.84;4967118;28;1084;-57
2023/11/26 04:16:07;;;;;;;;;;;;;;;16.73;45.27;97294.69;4967792;28;1128;-55
2023/11/26 04:18:33;;;;;;;;;;;;;;;17.71;43.14;97310.44;4965091;28;1078;-55
2023/11/26 04:20:59;;;;;;;;;;;;;;;16.97;44.67;97303.16;4968233;28;1069;-54
2023/11/26 04:23:24;;;;;;;;;;;;;;;16.82;45.00;97311.28;4979030;28;1160;-55
2023/11/26 04:25:50;;;;;;;;;;;;;;;17.74;42.76;97354.41;4979385;28;1910;-57
2023/11/26 04:28:16;;;;;;;;;;;;;;;17.01;44.53;97354.03;4964366;28;1060;-60
2023/11/26 04:30:41;;;;;;;;;;;;;;;17.41;43.80;97353.34;4960301;28;1002;-56
2023/11/26 04:33:07;;;;;;;;;;;;;;;17.38;43.38;97345.78;4973467;28;1105;-58
2023/11/26 04:35:33;;;;;;;;;;;;;;;16.91;44.53;97362.38;4960557;28;1859;-58
2023/11/26 04:37:58;;;;;;;;;;;;;;;17.27;44.08;97370.28;4972635;28;1219;-56
2023/11/26 04:40:25;;;;;;;;;;;;;;;17.40;43.52;97383.56;4970343;28;1160;-59
2023/11/26 04:42:51;;;;;;;;;;;;;;;16.80;44.79;97398.25;4978514;28;1144;-59
2023/11/26 04:45:16;;;;;;;;;;;;;;;16.80;45.07;97374.34;4967694;28;1910;-61
2023/11/26 04:47:42;;;;;;;;;;;;;;;17.57;43.15;97391.19;4959436;28;1245;-61
2023/11/26 04:50:07;;;;;;;;;;;;;;;16.92;44.67;97422.41;4971767;28;1030;-59
2023/11/26 04:52:33;;;;;;;;;;;;;;;16.99;44.70;97398.53;4976594;28;1061;-55
2023/11/26 04:54:58;;;;;;;;;;;;;;;17.60;42.93;97406.75;4960018;28;1129;-53
2023/11/26 04:57:24;;;;;;;;;;;;;;;16.93;44.32;97400.16;4978769;28;1152;-56
2023/11/26 04:59:50;;;;;;;;;;;;;;;17.89;42.48;97420.69;4979170;28;1057;-62
2023/11/26 05:02:18;;;;;;;;;;;;;;;18.22;41.62;97427.88;4960074;28;1138;-59
2023/11/26 05:04:44;;;;;;;;;;;;;;;17.02;44.16;97449.41;4970259;28;2577;-58
2023/11/26 05:07:09;;;;;;;;;;;;;;;17.03;44.48;97455.56;4972394;28;1040;-53
2023/11/26 05:09:35;;;;;;;;;;;;;;;17.52;43.11;97420.22;4959260;28;1113;-55
2023/11/26 05:12:03;;;;;;;;;;;;;;;16.93;44.54;97487.78;4964557;28;1071;-52
2023/11/26 05:14:29;;;;;;;;;;;;;;;17.44;43.41;97484.97;4965719;28;1009;-53
2023/11/26 05:16:55;;;;;;;;;;;;;;;17.47;43.29;97490.72;4949594;28;992;-54
2023/11/26 05:19:21;;;;;;;;;;;;;;;16.96;44.55;97508.63;4959695;28;1195;-53
2023/11/26 05:21:46;;;;;;;;;;;;;;;17.65;43.11;97553.13;4972347;28;967;-52
2023/11/26 05:24:13;;;;;;;;;;;;;;;17.36;43.49;97539.13;4971882;28;1993;-53
2023/11/26 05:26:39;;;;;;;;;;;;;;;16.83;44.81;97601.44;4977654;28;983;-57
2023/11/26 05:29:05;;;;;;;;;;;;;;;17.69;43.22;97602.25;4973921;28;1080;-56
2023/11/26 05:31:30;;;;;;;;;;;;;;;16.65;44.70;97608.03;4964622;28;1045;-54
2023/11/26 05:33:56;;;;;;;;;;;;;;;15.88;45.89;97622.47;4978257;28;1060;-57
2023/11/26 05:36:25;;;;;;;;;;;;;;;16.84;45.49;97669.44;4965207;28;1921;-58
2023/11/26 05:38:50;;;;;;;;;;;;;;;16.22;45.93;97668.00;4965295;28;1256;-55
2023/11/26 05:41:18;;;;;;;;;;;;;;;15.83;45.02;97687.66;4976286;28;1066;-58
2023/11/26 05:43:43;;;;;;;;;;;;;;;17.28;44.24;97683.56;4965959;28;1184;-59
2023/11/26 05:46:09;;;;;;;;;;;;;;;16.06;45.57;97679.66;4958783;28;1930;-61
2023/11/26 05:48:34;;;;;;;;;;;;;;;17.29;44.40;97698.47;4971344;28;1177;-59
2023/11/26 05:51:00;;;;;;;;;;;;;;;16.98;44.58;97719.00;4965350;28;1085;-55
2023/11/26 05:53:26;;;;;;;;;;;;;;;16.56;44.56;97708.19;4971334;28;1094;-50
2023/11/26 05:55:51;;;;;;;;;;;;;;;17.72;43.63;97699.38;4977854;28;1151;-49
2023/11/26 05:58:17;;;;;;;;;;;;;;;16.76;44.63;97710.22;4977835;28;1024;-59
2023/11/26 06:00:42;;;;;;;;;;;;;;;16.20;45.24;97725.72;4977655;28;1155;-56
2023/11/26 06:03:08;;;;;;;;;;;;;;;17.34;43.92;97727.13;4965615;28;1103;-58
2023/11/26 06:05:36;;;;;;;;;;;;;;;16.37;45.10;97734.28;4963862;28;2345;-54
2023/11/26 06:08:05;;;;;;;;;;;;;;;17.97;43.15;97768.06;4977767;28;1077;-53
2023/11/26 06:10:31;;;;;;;;;;;;;;;15.28;48.20;97765.53;4971327;28;1151;-57
2023/11/26 06:12:56;;;;;;;;;;;;;;;16.85;46.29;97762.19;4970740;28;1044;-53
2023/11/26 06:15:22;;;;;;;;;;;;;;;17.96;42.78;97767.25;4977077;28;1218;-52
2023/11/26 06:17:48;;;;;;;;;;;;;;;16.53;45.61;97772.25;4970074;28;1094;-68
2023/11/26 06:20:14;;;;;;;;;;;;;;;16.57;46.53;97760.25;4957983;28;1180;-69
2023/11/26 06:22:40;;;;;;;;;;;;;;;17.01;44.71;97765.63;4970759;28;1088;-66
2023/11/26 06:25:06;;;;;;;;;;;;;;;16.42;46.71;97768.22;4977416;28;1914;-61
2023/11/26 06:27:31;;;;;;;;;;;;;;;18.36;42.53;97771.19;4977096;28;1100;-63
2023/11/26 06:29:58;;;;;;;;;;;;;;;14.15;51.04;97785.91;4964351;28;1069;-59
2023/11/26 06:32:24;;;;;;;;;;;;;;;17.16;45.50;97786.00;4976879;28;1005;-59
2023/11/26 06:34:49;;;;;;;;;;;;;;;17.19;44.37;97751.94;4971224;28;1903;-59
2023/11/26 06:37:15;;;;;;;;;;;;;;;16.32;45.68;97739.31;4970405;28;995;-60
2023/11/26 06:39:40;;;;;;;;;;;;;;;16.94;45.64;97765.56;4976536;28;1240;-58
2023/11/26 06:42:06;;;;;;;;;;;;;;;16.76;45.04;97771.28;4968777;28;1068;-61
2023/11/26 06:44:31;;;;;;;;;;;;;;;16.57;46.21;97791.25;4962866;28;1907;-59
2023/11/26 06:46:57;;;;;;;;;;;;;;;18.15;42.54;97778.22;4965363;28;1120;-60
2023/11/26 06:49:23;;;;;;;;;;;;;;;16.67;45.38;97793.63;4976480;28;1263;-62
2023/11/26 06:51:49;;;;;;;;;;;;;;;16.36;46.41;97812.25;4977040;28;1029;-61
2023/11/26 06:54:15;;;;;;;;;;;;;;;17.16;44.58;97834.66;4965748;28;1123;-62
2023/11/26 06:56:40;;;;;;;;;;;;;;;16.38;45.36;97827.97;4964386;28;1109;-63
2023/11/26 06:59:06;;;;;;;;;;;;;;;16.90;45.72;97857.19;4970695;28;1149;-63
2023/11/26 07:01:31;;;;;;;;;;;;;;;16.80;44.96;97867.31;4970495;28;1085;-60
2023/11/26 07:03:57;;;;;;;;;;;;;;;16.24;44.96;97856.13;4970443;28;1235;-62
2023/11/26 07:06:22;;;;;;;;;;;;;;;17.86;43.70;97855.34;4961771;28;2621;-60
2023/11/26 07:08:48;;;;;;;;;;;;;;;16.86;44.98;97834.69;4963548;28;1189;-62
2023/11/26 07:11:22;;;;;;;;;;;;;;;17.26;44.96;97852.94;4977373;28;1053;-59
2023/11/26 07:13:48;;;;;;;;;;;;;;;17.82;43.15;97858.56;4969329;28;1184;-61
2023/11/26 07:16:14;;;;;;;;;;;;;;;16.68;45.01;97851.84;4971654;28;1137;-59
2023/11/26 07:18:40;;;;;;;;;;;;;;;16.95;45.48;97881.38;4966846;28;1028;-61
2023/11/26 07:21:05;;;;;;;;;;;;;;;17.11;44.64;97891.00;4957876;28;1120;-61
2023/11/26 07:23:31;;;;;;;;;;;;;;;16.46;45.03;97896.88;4969587;28;1081;-61
2023/11/26 07:25:57;;;;;;;;;;;;;;;16.72;45.70;97929.25;4970469;28;1911;-64
2023/11/26 07:28:22;;;;;;;;;;;;;;;17.26;44.47;97943.28;4965138;28;1054;-63
2023/11/26 07:30:48;;;;;;;;;;;;;;;16.35;45.08;97948.53;4965483;28;1115;-60
2023/11/26 07:33:13;;;;;;;;;;;;;;;16.81;46.07;97981.28;4964679;28;1069;-60
2023/11/26 07:35:39;;;;;;;;;;;;;;;17.11;44.56;97969.88;4954856;28;1847;-59
2023/11/26 07:38:06;;;;;;;;;;;;;;;16.40;44.99;98001.06;4969025;28;1218;-62
2023/11/26 07:43:59;;;;;;;;;;;;;;;14.57;50.06;98053.78;4989693;28;2404;-61
2023/11/26 07:46:25;;;;;;;;;;;;;;;17.14;45.70;98083.72;4964524;28;2239;-65
2023/11/26 07:52:04;;;;;;;;;;;;;;;16.34;46.06;98137.91;4959217;28;2322;-65
2023/11/26 07:54:30;;;;;;;;;;;;;;;15.63;47.34;98150.13;4955696;28;2073;-61
2023/11/26 07:56:55;;;;;;;;;;;;;;;16.84;46.64;98156.16;4968386;28;2251;-62
2023/11/26 07:59:21;;;;;;;;;;;;;;;16.52;46.24;98177.44;4953540;28;1801;-63
2023/11/26 08:01:49;;;;;;;;;;;;;;;16.20;45.30;98171.31;4961510;28;1844;-64
2023/11/26 08:04:15;;;;;;;;;;;;;;;17.44;45.06;98171.44;4965716;28;1977;-66
2023/11/26 08:06:42;;;;;;;;;;;;;;;16.68;45.21;98194.28;4975869;28;2109;-67
2023/11/26 08:09:10;;;;;;;;;;;;;;;16.18;44.99;98199.84;4979527;28;1119;-62
2023/11/26 08:11:43;;;;;;;;;;;;;;;17.48;44.78;98217.09;4969454;28;1167;-67
2023/11/26 08:14:12;;;;;;;;;;;;;;;16.44;45.59;98227.06;4977857;28;1188;-67
2023/11/26 08:16:40;;;;;;;;;;;;;;;15.99;45.06;98232.88;4967332;28;1057;-67
2023/11/26 08:19:12;;;;;;;;;;;;;;;16.61;45.75;98231.31;4973743;28;1084;-68
2023/11/26 08:21:41;;;;;;;;;;;;;;;16.90;45.15;98247.53;4967669;28;1116;-59
2023/11/26 08:24:13;;;;;;;;;;;;;;;16.18;45.21;98262.66;4966955;28;1906;-61
2023/11/26 08:26:45;;;;;;;;;;;;;;;18.77;39.51;98250.72;4968348;28;2368;-59
2023/11/26 08:29:11;;;;;;;;;;;;;;;19.02;40.72;98247.69;4965481;28;2191;-62
2023/11/26 08:31:40;;;;;;;;;;;;;;;16.30;45.89;98244.56;4971301;28;1946;-62
2023/11/26 08:34:07;;;;;;;;;;;;;;;15.47;47.67;98267.56;4964846;28;1864;-62
2023/11/26 08:36:35;;;;;;;;;;;;;;;17.30;44.89;98300.59;4963049;28;2255;-62
2023/11/26 08:39:00;;;;;;;;;;;;;;;16.72;45.33;98301.75;4972518;28;1866;-63
2023/11/26 08:41:26;;;;;;;;;;;;;;;16.27;45.32;98288.16;4960108;28;2278;-62
2023/11/26 08:43:51;;;;;;;;;;;;;;;16.28;46.33;98311.06;4975474;28;2329;-62
2023/11/26 08:46:19;;;;;;;;;;;;;;;17.34;44.36;98330.28;4959230;28;1902;-65
2023/11/26 08:48:45;;;;;;;;;;;;;;;16.33;45.27;98332.56;4962028;28;1198;-60
2023/11/26 08:51:10;;;;;;;;;;;;;;;16.11;44.40;98350.03;4979187;28;1116;-62
2023/11/26 08:53:36;;;;;;;;;;;;;;;17.61;43.98;98338.75;4963459;28;1076;-63
2023/11/26 08:56:02;;;;;;;;;;;;;;;16.38;45.10;98364.72;4960133;28;866;-60
2023/11/26 08:58:27;;;;;;;;;;;;;;;17.42;44.45;98369.28;4959909;28;1101;-60
2023/11/26 09:00:53;;;;;;;;;;;;;;;17.16;44.13;98371.28;4958084;28;1074;-61
2023/11/26 09:03:18;;;;;;;;;;;;;;;16.48;44.87;98353.91;4962903;28;1097;-61
2023/11/26 09:05:44;;;;;;;;;;;;;;;18.26;42.63;98372.94;4960445;28;1986;-65
2023/11/26 09:08:09;;;;;;;;;;;;;;;16.95;44.29;98385.94;4960344;28;888;-65
2023/11/26 09:10:35;;;;;;;;;;;;;;;16.35;44.54;98364.25;4960227;28;1165;-65
2023/11/26 09:13:00;;;;;;;;;;;;;;;16.94;45.43;98381.63;4959554;28;1072;-62
2023/11/26 09:15:27;;;;;;;;;;;;;;;16.82;44.75;98393.63;4959934;28;1073;-62
2023/11/26 09:17:53;;;;;;;;;;;;;;;16.91;45.47;98382.00;4959646;28;1164;-60
2023/11/26 09:20:18;;;;;;;;;;;;;;;17.59;43.15;98401.88;4958057;28;1434;-63
2023/11/26 09:22:44;;;;;;;;;;;;;;;15.29;49.91;98411.59;4960056;28;1149;-62
2023/11/26 09:25:13;;;;;;;;;;;;;;;18.08;43.00;98426.47;4959564;28;1977;-61
2023/11/26 09:27:38;;;;;;;;;;;;;;;15.29;48.06;98438.09;4959450;28;1029;-63
2023/11/26 09:30:04;;;;;;;;;;;;;;;16.89;46.09;98453.03;4959453;28;1174;-64
2023/11/26 09:32:31;;;;;;;;;;;;;;;18.54;41.60;98457.50;4959546;28;915;-61
2023/11/26 09:34:56;;;;;;;;;;;;;;;16.81;44.76;98472.47;4959353;28;1072;-61
2023/11/26 09:37:22;;;;;;;;;;;;;;;16.36;44.87;98477.34;4966990;28;1097;-62
2023/11/26 09:39:47;;;;;;;;;;;;;;;16.47;45.44;98497.41;4963959;28;1221;-62
2023/11/26 09:42:13;;;;;;;;;;;;;;;17.04;44.62;98492.97;4959645;28;1153;-63
2023/11/26 09:44:42;;;;;;;;;;;;;;;16.25;45.14;98508.53;4960402;28;1977;-62
2023/11/26 09:47:08;;;;;;;;;;;;;;;17.27;44.63;98533.97;4970395;28;1119;-64
2023/11/26 09:49:33;;;;;;;;;;;;;;;16.68;44.87;98542.03;4959081;28;1053;-63
2023/11/26 09:52:01;;;;;;;;;;;;;;;16.24;44.62;98554.63;4959183;28;1200;-63
2023/11/26 09:54:27;;;;;;;;;;;;;;;17.38;44.06;98584.91;4958797;28;1108;-63
2023/11/26 09:56:55;;;;;;;;;;;;;;;16.37;45.06;98575.34;4959125;28;1081;-61
2023/11/26 09:59:32;;;;;;;;;;;;;;;16.65;45.42;98598.94;4958526;28;1105;-64
2023/11/26 10:01:58;;;;;;;;;;;;;;;16.87;44.58;98595.75;4959024;28;1177;-62
2023/11/26 10:04:24;;;;;;;;;;;;;;;16.24;44.74;98606.84;4957798;28;1906;-58
2023/11/26 10:06:50;;;;;;;;;;;;;;;16.51;45.20;98613.69;4959282;28;1105;-62
2023/11/26 10:09:18;;;;;;;;;;;;;;;17.02;44.49;98620.66;4958655;28;1155;-62
2023/11/26 10:11:44;;;;;;;;;;;;;;;16.21;44.88;98649.63;4958916;28;1025;-62
2023/11/26 10:14:17;;;;;;;;;;;;;;;15.97;44.47;98645.84;4958595;28;1136;-61
2023/11/26 10:16:43;;;;;;;;;;;;;;;17.34;43.81;98643.88;4958825;28;1050;-62
2023/11/26 10:19:20;;;;;;;;;;;;;;;16.23;45.38;98650.28;4963477;28;1084;-62
2023/11/26 10:21:50;;;;;;;;;;;;;;;16.83;45.26;98639.59;4964154;28;1100;-61
2023/11/26 10:24:18;;;;;;;;;;;;;;;16.59;44.86;98654.50;4958933;28;1915;-61
2023/11/26 10:26:43;;;;;;;;;;;;;;;16.01;44.79;98647.25;4958356;28;1018;-65
2023/11/26 10:29:12;;;;;;;;;;;;;;;17.62;43.27;98668.25;4958363;28;1038;-66
2023/11/26 10:32:00;;;;;;;;;;;;;;;16.21;45.33;98676.16;4958506;28;1072;-65
2023/11/26 10:34:26;;;;;;;;;;;;;;;17.42;43.97;98683.72;4952442;28;1656;-65
2023/11/26 10:36:54;;;;;;;;;;;;;;;16.87;44.30;98710.78;4959079;28;1081;-62
2023/11/26 10:39:19;;;;;;;;;;;;;;;16.25;44.78;98714.63;4958130;28;1408;-63
2023/11/26 10:41:45;;;;;;;;;;;;;;;16.96;44.54;98710.78;4958608;28;1046;-69
2023/11/26 10:44:10;;;;;;;;;;;;;;;16.25;45.25;98714.63;4958746;28;1177;-69
2023/11/26 10:46:36;;;;;;;;;;;;;;;16.35;45.33;98702.06;4957602;28;1898;-69
2023/11/26 10:49:03;;;;;;;;;;;;;;;17.48;43.13;98693.69;4958204;28;1084;-69
2023/11/26 10:51:29;;;;;;;;;;;;;;;16.34;44.57;98684.47;4956991;28;1031;-58
2023/11/26 10:53:55;;;;;;;;;;;;;;;17.20;44.22;98704.69;4957666;28;1067;-62
2023/11/26 10:56:21;;;;;;;;;;;;;;;16.73;44.42;98735.34;4958254;28;994;-63
2023/11/26 10:58:47;;;;;;;;;;;;;;;16.65;45.41;98729.00;4957314;28;1015;-61
2023/11/26 11:01:13;;;;;;;;;;;;;;;18.11;41.73;98748.06;4958075;28;1021;-57
2023/11/26 11:03:38;;;;;;;;;;;;;;;16.69;44.06;98745.44;4957203;28;1165;-63
2023/11/26 11:06:05;;;;;;;;;;;;;;;16.23;43.97;98751.91;4957154;28;1902;-63
2023/11/26 11:08:31;;;;;;;;;;;;;;;16.73;44.66;98765.34;4958923;28;909;-63
2023/11/26 11:10:59;;;;;;;;;;;;;;;16.53;44.42;98765.63;4959073;28;1128;-63
2023/11/26 11:13:25;;;;;;;;;;;;;;;16.13;44.74;98770.59;4966117;28;1073;-61
2023/11/26 11:15:50;;;;;;;;;;;;;;;17.65;42.78;98781.38;4956939;28;1054;-66
2023/11/26 11:18:28;;;;;;;;;;;;;;;16.43;44.48;98785.34;4957270;28;1128;-65
2023/11/26 11:21:10;;;;;;;;;;;;;;;17.71;42.99;98772.75;4957397;28;1069;-64
2023/11/26 11:23:38;;;;;;;;;;;;;;;16.84;43.88;98787.28;4958009;28;1136;-63
2023/11/26 11:26:05;;;;;;;;;;;;;;;16.63;45.04;98807.97;4958159;28;1977;-61
2023/11/26 11:28:34;;;;;;;;;;;;;;;17.80;42.27;98809.97;4958068;28;1125;-58
2023/11/26 11:31:00;;;;;;;;;;;;;;;16.57;44.35;98805.97;4957606;28;1050;-50
2023/11/26 11:33:25;;;;;;;;;;;;;;;17.87;42.71;98816.28;4957797;28;978;-56
2023/11/26 11:35:51;;;;;;;;;;;;;;;17.04;43.47;98833.00;4957889;28;1204;-55
2023/11/26 11:38:16;;;;;;;;;;;;;;;16.46;44.04;98830.13;4957788;28;1268;-55
2023/11/26 11:41:02;;;;;;;;;;;;;;;17.81;42.62;98836.41;4957884;28;1116;-53
2023/11/26 11:43:28;;;;;;;;;;;;;;;16.56;44.21;98843.28;4958443;28;1086;-52
2023/11/26 11:45:54;;;;;;;;;;;;;;;16.21;43.63;98852.06;4958084;28;1899;-55
2023/11/26 11:48:45;;;;;;;;;;;;;;;17.72;42.54;98859.50;4958107;28;1037;-57
2023/11/26 11:51:29;;;;;;;;;;;;;;;16.37;44.41;98863.75;4931908;28;1287;-56
2023/11/26 11:54:15;;;;;;;;;;;;;;;17.40;43.22;98871.78;4965583;28;1153;-54
2023/11/26 11:56:44;;;;;;;;;;;;;;;16.50;44.37;98877.44;4946993;28;1487;-53
2023/11/26 11:59:09;;;;;;;;;;;;;;;17.89;42.21;98883.44;4957952;28;1029;-59
2023/11/26 12:01:35;;;;;;;;;;;;;;;16.67;44.13;98879.31;4957890;28;1125;-58
2023/11/26 12:04:01;;;;;;;;;;;;;;;15.91;47.23;98899.25;4957203;28;1147;-51
2023/11/26 12:06:26;;;;;;;;;;;;;;;18.31;41.19;98900.22;4957662;28;1974;-55
2023/11/26 12:09:01;;;;;;;;;;;;;;;16.89;43.92;98907.16;4957916;28;1115;-57
2023/11/26 12:11:27;;;;;;;;;;;;;;;16.35;44.42;98906.38;4957820;28;1081;-54
2023/11/26 12:13:53;;;;;;;;;;;;;;;17.57;42.76;98920.50;4957487;28;1141;-54
2023/11/26 12:16:21;;;;;;;;;;;;;;;16.54;44.16;98928.38;4957914;28;1204;-62
2023/11/26 12:18:46;;;;;;;;;;;;;;;16.13;43.92;98942.22;4957705;28;1165;-48
2023/11/26 12:21:13;;;;;;;;;;;;;;;16.32;44.64;98957.09;4957189;28;1437;-48
2023/11/26 12:23:39;;;;;;;;;;;;;;;16.91;43.79;98944.19;4948117;28;1029;-57
2023/11/26 12:26:05;;;;;;;;;;;;;;;17.00;44.01;98959.16;4949038;28;1914;-59
2023/11/26 12:28:42;;;;;;;;;;;;;;;18.66;40.26;98963.06;4960824;28;1022;-59
2023/11/26 12:31:07;;;;;;;;;;;;;;;14.31;49.68;98974.31;4961316;28;1072;-61
2023/11/26 12:33:33;;;;;;;;;;;;;;;17.56;43.00;98979.16;4959439;28;1030;-60
2023/11/26 12:35:59;;;;;;;;;;;;;;;17.47;42.30;98973.81;4961472;28;1081;-59
2023/11/26 12:38:26;;;;;;;;;;;;;;;16.34;44.48;98994.09;4959763;28;1162;-60
2023/11/26 12:40:56;;;;;;;;;;;;;;;15.98;44.43;98993.13;4959841;28;1106;-60
2023/11/26 12:43:21;;;;;;;;;;;;;;;17.55;42.14;99001.44;4960800;28;1080;-59
2023/11/26 12:45:47;;;;;;;;;;;;;;;16.34;44.15;99010.88;4960346;28;1906;-61
2023/11/26 12:48:12;;;;;;;;;;;;;;;16.06;44.77;99013.63;4959794;28;1181;-60
2023/11/26 12:50:41;;;;;;;;;;;;;;;17.11;42.91;99017.38;4960901;28;1196;-61
2023/11/26 12:53:13;;;;;;;;;;;;;;;16.20;44.29;99025.50;4975917;28;1096;-61
2023/11/26 12:55:48;;;;;;;;;;;;;;;16.87;44.19;99016.19;4968918;28;1040;-59
2023/11/26 12:58:17;;;;;;;;;;;;;;;16.83;43.42;99028.13;4960487;28;1049;-61
2023/11/26 13:00:43;;;;;;;;;;;;;;;16.11;43.94;99037.03;4960739;28;1157;-60
2023/11/26 13:03:09;;;;;;;;;;;;;;;17.48;42.54;99041.91;4960469;28;1124;-59
2023/11/26 13:05:36;;;;;;;;;;;;;;;16.21;44.28;99051.06;4960342;28;1913;-59
2023/11/26 13:08:15;;;;;;;;;;;;;;;17.07;43.62;99061.13;4972643;28;1232;-60